Time,TemperatureF,DewpointF,PressureIn,WindDirection,WindDirectionDegrees,WindSpeedMPH,WindSpeedGustMPH,Humidity,HourlyPrecipIn,Conditions,Clouds,dailyrainin,SoftwareType,DateUTC
2013-07-20 00:00:00,76.9,72.0,29.96,SW,231,0.0,0.0,84,0.00,,,0.00,weatherlink.com 1.10,2013-07-20 05:00:00,
2013-07-20 00:15:00,76.5,72.0,29.97,SW,231,0.0,0.0,85,0.00,,,0.00,weatherlink.com 1.10,2013-07-20 05:15:00,
2013-07-20 00:30:00,76.2,72.0,29.96,SW,231,0.0,0.0,86,0.00,,,0.00,weatherlink.com 1.10,2013-07-20 05:30:00,
2013-07-20 00:45:00,75.8,72.0,29.98,SW,231,0.0,0.0,87,0.00,,,0.00,weatherlink.com 1.10,2013-07-20 05:45:00,
2013-07-20 01:00:00,75.4,72.0,29.97,SW,231,0.0,0.0,88,0.00,,,0.00,weatherlink.com 1.10,2013-07-20 06:00:00,
2013-07-20 01:15:00,75.2,72.0,29.97,SW,231,0.0,0.0,88,0.00,,,0.00,weatherlink.com 1.10,2013-07-20 06:15:00,
2013-07-20 01:30:00,74.9,72.0,29.97,SW,231,0.0,0.0,89,0.00,,,0.00,weatherlink.com 1.10,2013-07-20 06:30:00,
2013-07-20 01:45:00,74.7,71.0,29.97,SW,229,0.0,0.0,89,0.00,,,0.00,weatherlink.com 1.10,2013-07-20 06:45:00,
2013-07-20 02:00:00,74.5,71.0,29.97,SW,231,0.0,0.0,89,0.00,,,0.00,weatherlink.com 1.10,2013-07-20 07:00:00,
2013-07-20 02:16:00,74.4,71.0,29.97,SW,229,0.0,0.0,90,0.00,,,0.00,weatherlink.com 1.10,2013-07-20 07:16:00,
2013-07-20 02:31:00,74.2,71.0,29.97,SW,229,0.0,0.0,90,0.00,,,0.00,weatherlink.com 1.10,2013-07-20 07:31:00,
2013-07-20 02:46:00,74.0,71.0,29.97,SW,231,0.0,0.0,90,0.00,,,0.00,weatherlink.com 1.10,2013-07-20 07:46:00,
2013-07-20 03:01:00,73.9,71.0,29.97,SW,229,0.0,0.0,91,0.00,,,0.00,weatherlink.com 1.10,2013-07-20 08:01:00,
2013-07-20 03:16:00,73.9,71.0,29.97,SW,231,0.0,0.0,91,0.00,,,0.00,weatherlink.com 1.10,2013-07-20 08:16:00,
2013-07-20 03:31:00,73.9,71.0,29.97,SW,231,0.0,0.0,91,0.00,,,0.00,weatherlink.com 1.10,2013-07-20 08:31:00,
2013-07-20 03:46:00,73.9,71.0,29.97,SW,231,0.0,0.0,91,0.00,,,0.00,weatherlink.com 1.10,2013-07-20 08:46:00,
2013-07-20 04:01:00,73.8,71.0,29.97,SW,231,0.0,0.0,91,0.00,,,0.00,weatherlink.com 1.10,2013-07-20 09:01:00,
2013-07-20 04:16:00,73.7,71.0,29.97,SW,231,0.0,0.0,92,0.00,,,0.00,weatherlink.com 1.10,2013-07-20 09:16:00,
2013-07-20 04:31:00,73.9,72.0,29.97,SW,231,0.0,0.0,92,0.00,,,0.00,weatherlink.com 1.10,2013-07-20 09:31:00,
2013-07-20 04:46:00,74.1,72.0,29.98,SW,231,0.0,0.0,92,0.00,,,0.00,weatherlink.com 1.10,2013-07-20 09:46:00,
2013-07-20 05:01:00,74.2,72.0,29.98,SW,231,0.0,0.0,92,0.00,,,0.00,weatherlink.com 1.10,2013-07-20 10:01:00,
2013-07-20 05:16:00,74.2,72.0,29.98,SW,229,0.0,0.0,92,0.00,,,0.00,weatherlink.com 1.10,2013-07-20 10:16:00,
2013-07-20 05:31:00,74.1,72.0,29.98,SW,231,0.0,0.0,92,0.00,,,0.00,weatherlink.com 1.10,2013-07-20 10:31:00,
2013-07-20 05:46:00,74.4,72.0,29.98,WSW,252,0.0,1.0,91,0.00,,,0.00,weatherlink.com 1.10,2013-07-20 10:46:00,
2013-07-20 06:01:00,74.3,72.0,29.99,WSW,251,0.0,0.0,92,0.00,,,0.00,weatherlink.com 1.10,2013-07-20 11:01:00,
2013-07-20 06:16:00,74.2,72.0,29.99,WSW,252,0.0,1.0,92,0.00,,,0.00,weatherlink.com 1.10,2013-07-20 11:16:00,
2013-07-20 06:31:00,74.2,72.0,29.99,WSW,252,0.0,1.0,92,0.00,,,0.00,weatherlink.com 1.10,2013-07-20 11:31:00,
2013-07-20 06:46:00,74.5,72.0,29.99,ESE,105,0.0,1.0,92,0.00,,,0.00,weatherlink.com 1.10,2013-07-20 11:46:00,
2013-07-20 07:01:00,75.0,72.0,29.99,NW,304,0.0,2.0,91,0.00,,,0.00,weatherlink.com 1.10,2013-07-20 12:01:00,
2013-07-20 07:16:00,75.5,73.0,29.99,WSW,252,0.0,2.0,90,0.00,,,0.00,weatherlink.com 1.10,2013-07-20 12:16:00,
2013-07-20 07:31:00,76.6,73.0,29.99,SSW,205,0.0,1.0,88,0.00,,,0.00,weatherlink.com 1.10,2013-07-20 12:31:00,
2013-07-20 07:46:00,77.0,73.0,29.99,SSW,210,0.0,2.0,87,0.00,,,0.00,weatherlink.com 1.10,2013-07-20 12:46:00,
2013-07-20 08:01:00,77.4,73.0,29.98,SSW,212,0.0,1.0,87,0.00,,,0.00,weatherlink.com 1.10,2013-07-20 13:01:00,
2013-07-20 08:16:00,78.1,73.0,29.99,WNW,300,0.0,3.0,85,0.00,,,0.00,weatherlink.com 1.10,2013-07-20 13:16:00,
2013-07-20 08:31:00,78.8,74.0,29.99,WNW,300,0.0,4.0,84,0.00,,,0.00,weatherlink.com 1.10,2013-07-20 13:31:00,
2013-07-20 08:46:00,79.8,74.0,29.99,WNW,299,0.0,2.0,81,0.00,,,0.00,weatherlink.com 1.10,2013-07-20 13:46:00,
2013-07-20 09:01:00,81.4,74.0,29.99,WNW,288,0.0,3.0,79,0.00,,,0.00,weatherlink.com 1.10,2013-07-20 14:01:00,
2013-07-20 09:16:00,83.2,75.0,29.99,WSW,240,0.0,2.0,76,0.00,,,0.00,weatherlink.com 1.10,2013-07-20 14:16:00,
2013-07-20 09:31:00,84.9,75.0,29.98,WNW,294,1.0,2.0,72,0.00,,,0.00,weatherlink.com 1.10,2013-07-20 14:31:00,
2013-07-20 09:46:00,85.7,74.0,29.98,WSW,245,0.0,4.0,68,0.00,,,0.00,weatherlink.com 1.10,2013-07-20 14:46:00,
2013-07-20 10:01:00,86.9,75.0,29.98,West,281,0.0,3.0,68,0.00,,,0.00,weatherlink.com 1.10,2013-07-20 15:01:00,
2013-07-20 10:16:00,87.2,74.0,29.98,WNW,288,1.0,6.0,65,0.00,,,0.00,weatherlink.com 1.10,2013-07-20 15:16:00,
2013-07-20 10:31:00,87.5,75.0,29.98,WNW,288,1.0,4.0,66,0.00,,,0.00,weatherlink.com 1.10,2013-07-20 15:31:00,
2013-07-20 10:47:00,88.8,75.0,29.98,SW,235,0.0,3.0,64,0.00,,,0.00,weatherlink.com 1.10,2013-07-20 15:47:00,
2013-07-20 11:02:00,89.5,75.0,29.97,West,270,1.0,5.0,63,0.00,,,0.00,weatherlink.com 1.10,2013-07-20 16:02:00,
2013-07-20 11:17:00,89.4,76.0,29.97,WSW,243,0.0,5.0,64,0.00,,,0.00,weatherlink.com 1.10,2013-07-20 16:17:00,
2013-07-20 11:32:00,89.7,75.0,29.97,West,277,2.0,3.0,62,0.00,,,0.00,weatherlink.com 1.10,2013-07-20 16:32:00,
2013-07-20 11:47:00,88.9,75.0,29.97,West,260,2.0,3.0,63,0.00,,,0.00,weatherlink.com 1.10,2013-07-20 16:47:00,
2013-07-20 12:02:00,89.7,75.0,29.97,West,280,2.0,2.0,63,0.00,,,0.00,weatherlink.com 1.10,2013-07-20 17:02:00,
2013-07-20 12:17:00,90.2,75.0,29.96,NW,306,1.0,3.0,61,0.00,,,0.00,weatherlink.com 1.10,2013-07-20 17:17:00,
2013-07-20 12:32:00,91.3,75.0,29.96,SW,214,0.0,3.0,59,0.00,,,0.00,weatherlink.com 1.10,2013-07-20 17:32:00,
2013-07-20 12:47:00,92.5,76.0,29.96,NW,307,0.0,3.0,58,0.00,,,0.00,weatherlink.com 1.10,2013-07-20 17:47:00,
2013-07-20 13:02:00,93.4,75.0,29.95,SW,218,0.0,2.0,56,0.00,,,0.00,weatherlink.com 1.10,2013-07-20 18:02:00,
2013-07-20 13:17:00,93.4,75.0,29.95,SSW,211,1.0,4.0,55,0.00,,,0.00,weatherlink.com 1.10,2013-07-20 18:17:00,
2013-07-20 13:32:00,93.8,75.0,29.94,SW,224,2.0,3.0,55,0.00,,,0.00,weatherlink.com 1.10,2013-07-20 18:32:00,
2013-07-20 13:47:00,94.1,76.0,29.93,West,281,1.0,3.0,55,0.00,,,0.00,weatherlink.com 1.10,2013-07-20 18:47:00,
2013-07-20 14:02:00,93.8,75.0,29.93,WSW,242,1.0,6.0,55,0.00,,,0.00,weatherlink.com 1.10,2013-07-20 19:02:00,
2013-07-20 14:17:00,93.8,74.0,29.93,WNW,291,0.0,3.0,53,0.00,,,0.00,weatherlink.com 1.10,2013-07-20 19:17:00,
2013-07-20 14:47:00,92.2,74.0,29.92,West,276,0.0,4.0,56,0.00,,,0.00,weatherlink.com 1.10,2013-07-20 19:47:00,
2013-07-20 15:02:00,92.7,76.0,29.91,West,259,1.0,4.0,58,0.00,,,0.00,weatherlink.com 1.10,2013-07-20 20:02:00,
2013-07-20 15:17:00,93.7,75.0,29.90,WNW,287,1.0,2.0,55,0.00,,,0.00,weatherlink.com 1.10,2013-07-20 20:17:00,
2013-07-20 15:32:00,94.8,76.0,29.90,West,276,2.0,3.0,54,0.00,,,0.00,weatherlink.com 1.10,2013-07-20 20:32:00,
2013-07-20 15:47:00,96.3,75.0,29.89,SE,144,0.0,2.0,51,0.00,,,0.00,weatherlink.com 1.10,2013-07-20 20:47:00,
2013-07-20 16:02:00,96.8,76.0,29.88,West,263,0.0,2.0,51,0.00,,,0.00,weatherlink.com 1.10,2013-07-20 21:02:00,
2013-07-20 16:17:00,95.5,74.0,29.87,NNW,340,2.0,3.0,50,0.00,,,0.00,weatherlink.com 1.10,2013-07-20 21:17:00,
2013-07-20 16:32:00,96.1,75.0,29.87,WSW,243,1.0,2.0,50,0.00,,,0.00,weatherlink.com 1.10,2013-07-20 21:32:00,
2013-07-20 16:47:00,95.5,75.0,29.86,SSW,198,0.0,2.0,52,0.00,,,0.00,weatherlink.com 1.10,2013-07-20 21:47:00,
2013-07-20 17:32:00,95.2,75.0,29.85,SSW,197,0.0,1.0,52,0.00,,,0.00,weatherlink.com 1.10,2013-07-20 22:32:00,
2013-07-20 17:48:00,95.0,75.0,29.85,SSE,154,1.0,3.0,53,0.00,,,0.00,weatherlink.com 1.10,2013-07-20 22:48:00,
2013-07-20 18:03:00,93.8,75.0,29.86,NW,308,0.0,4.0,54,0.00,,,0.00,weatherlink.com 1.10,2013-07-20 23:03:00,
2013-07-20 18:33:00,94.2,75.0,29.88,SW,222,0.0,2.0,53,0.00,,,0.00,weatherlink.com 1.10,2013-07-20 23:33:00,
2013-07-20 19:03:00,94.1,74.0,29.89,WSW,258,0.0,2.0,53,0.00,,,0.00,weatherlink.com 1.10,2013-07-21 00:03:00,
2013-07-20 19:18:00,92.6,74.0,29.89,SSW,204,0.0,2.0,55,0.00,,,0.00,weatherlink.com 1.10,2013-07-21 00:18:00,
2013-07-20 19:33:00,90.2,74.0,29.90,WSW,258,0.0,3.0,59,0.00,,,0.00,weatherlink.com 1.10,2013-07-21 00:33:00,
2013-07-20 19:48:00,88.7,74.0,29.90,West,259,0.0,1.0,61,0.00,,,0.00,weatherlink.com 1.10,2013-07-21 00:48:00,
2013-07-20 20:03:00,87.3,74.0,29.90,West,259,0.0,0.0,64,0.00,,,0.00,weatherlink.com 1.10,2013-07-21 01:03:00,
2013-07-20 20:33:00,85.1,74.0,29.90,West,259,0.0,1.0,70,0.00,,,0.00,weatherlink.com 1.10,2013-07-21 01:33:00,
2013-07-20 21:03:00,83.6,74.0,29.92,West,259,0.0,0.0,73,0.00,,,0.00,weatherlink.com 1.10,2013-07-21 02:03:00,
2013-07-20 21:18:00,83.1,74.0,29.92,West,259,0.0,0.0,75,0.00,,,0.00,weatherlink.com 1.10,2013-07-21 02:18:00,
2013-07-20 21:48:00,82.5,74.0,29.93,West,259,0.0,0.0,76,0.00,,,0.00,weatherlink.com 1.10,2013-07-21 02:48:00,
2013-07-20 22:03:00,82.3,75.0,29.92,West,259,0.0,0.0,78,0.00,,,0.00,weatherlink.com 1.10,2013-07-21 03:03:00,
2013-07-20 22:18:00,82.2,75.0,29.93,West,259,0.0,0.0,78,0.00,,,0.00,weatherlink.com 1.10,2013-07-21 03:18:00,
2013-07-20 22:33:00,81.9,74.0,29.93,West,259,0.0,0.0,78,0.00,,,0.00,weatherlink.com 1.10,2013-07-21 03:33:00,
2013-07-20 22:48:00,81.7,74.0,29.93,West,259,0.0,0.0,78,0.00,,,0.00,weatherlink.com 1.10,2013-07-21 03:48:00,
2013-07-20 23:03:00,81.6,75.0,29.93,West,259,0.0,0.0,79,0.00,,,0.00,weatherlink.com 1.10,2013-07-21 04:03:00,
2013-07-20 23:18:00,81.4,74.0,29.94,West,259,0.0,0.0,79,0.00,,,0.00,weatherlink.com 1.10,2013-07-21 04:18:00,
2013-07-20 23:34:00,81.1,74.0,29.94,West,259,0.0,0.0,79,0.00,,,0.00,weatherlink.com 1.10,2013-07-21 04:34:00,
2013-07-20 23:48:00,80.9,74.0,29.94,West,259,0.0,0.0,80,0.00,,,0.00,weatherlink.com 1.10,2013-07-21 04:48:00,